sensor_id;sensor_type;location;lat;lon;timestamp;pressure;altitude;pressure_sealevel;temperature;humidity
72370;BME280;60343;-32.030;115.880;2024-01-15T00:00:20;100785.59;;;30.52;57.42
72370;BME280;60343;-32.030;115.880;2024-01-15T00:02:55;100784.16;;;30.82;57.08
72370;BME280;60343;-32.030;115.880;2024-01-15T00:05:29;100788.59;;;30.83;55.54
72370;BME280;60343;-32.030;115.880;2024-01-15T00:08:03;100784.56;;;30.76;55.45
72370;BME280;60343;-32.030;115.880;2024-01-15T00:10:38;100777.59;;;30.92;54.44
72370;BME280;60343;-32.030;115.880;2024-01-15T00:13:12;100782.34;;;30.78;54.96
72370;BME280;60343;-32.030;115.880;2024-01-15T00:15:52;100768.00;;;31.03;53.95
72370;BME280;60343;-32.030;115.880;2024-01-15T00:18:27;100774.81;;;31.19;53.17
72370;BME280;60343;-32.030;115.880;2024-01-15T00:21:02;100773.03;;;31.37;53.17
72370;BME280;60343;-32.030;115.880;2024-01-15T00:23:36;100773.81;;;31.15;52.45
72370;BME280;60343;-32.030;115.880;2024-01-15T00:26:10;100776.13;;;31.35;53.22
72370;BME280;60343;-32.030;115.880;2024-01-15T00:28:44;100774.88;;;31.41;52.59
72370;BME280;60343;-32.030;115.880;2024-01-15T00:31:24;100777.69;;;31.50;52.14
72370;BME280;60343;-32.030;115.880;2024-01-15T00:33:58;100776.88;;;31.14;53.38
72370;BME280;60343;-32.030;115.880;2024-01-15T00:36:32;100773.63;;;31.12;53.18
72370;BME280;60343;-32.030;115.880;2024-01-15T00:39:07;100778.81;;;31.49;51.99
72370;BME280;60343;-32.030;115.880;2024-01-15T00:41:41;100779.16;;;31.83;52.30
72370;BME280;60343;-32.030;115.880;2024-01-15T00:44:15;100772.53;;;32.15;50.37
72370;BME280;60343;-32.030;115.880;2024-01-15T00:46:55;100770.13;;;32.00;49.90
72370;BME280;60343;-32.030;115.880;2024-01-15T00:49:30;100767.63;;;32.43;50.08
72370;BME280;60343;-32.030;115.880;2024-01-15T00:52:06;100768.06;;;32.67;49.19
72370;BME280;60343;-32.030;115.880;2024-01-15T00:54:40;100762.03;;;32.65;49.25
72370;BME280;60343;-32.030;115.880;2024-01-15T00:57:14;100758.00;;;32.80;47.80
72370;BME280;60343;-32.030;115.880;2024-01-15T00:59:48;100763.38;;;32.85;48.88
72370;BME280;60343;-32.030;115.880;2024-01-15T01:02:28;100758.41;;;33.13;47.74
72370;BME280;60343;-32.030;115.880;2024-01-15T01:05:03;100748.97;;;33.31;46.38
72370;BME280;60343;-32.030;115.880;2024-01-15T01:07:37;100744.41;;;33.44;45.70
72370;BME280;60343;-32.030;115.880;2024-01-15T01:10:11;100744.75;;;33.34;46.68
72370;BME280;60343;-32.030;115.880;2024-01-15T01:12:46;100737.06;;;33.48;46.15
72370;BME280;60343;-32.030;115.880;2024-01-15T01:15:20;100729.03;;;33.63;46.31
72370;BME280;60343;-32.030;115.880;2024-01-15T01:18:01;100730.66;;;33.82;45.91
72370;BME280;60343;-32.030;115.880;2024-01-15T01:20:35;100730.16;;;33.88;45.57
72370;BME280;60343;-32.030;115.880;2024-01-15T01:23:09;100716.56;;;33.95;44.38
72370;BME280;60343;-32.030;115.880;2024-01-15T01:25:43;100724.44;;;33.93;45.46
72370;BME280;60343;-32.030;115.880;2024-01-15T01:28:19;100720.38;;;33.31;46.83
72370;BME280;60343;-32.030;115.880;2024-01-15T01:30:53;100713.06;;;33.43;45.84
72370;BME280;60343;-32.030;115.880;2024-01-15T01:33:34;100712.88;;;33.57;46.70
72370;BME280;60343;-32.030;115.880;2024-01-15T01:36:09;100705.63;;;33.90;45.72
72370;BME280;60343;-32.030;115.880;2024-01-15T01:38:43;100702.78;;;34.16;44.67
72370;BME280;60343;-32.030;115.880;2024-01-15T01:41:17;100708.16;;;34.30;44.66
72370;BME280;60343;-32.030;115.880;2024-01-15T01:43:52;100708.00;;;34.56;44.10
72370;BME280;60343;-32.030;115.880;2024-01-15T01:46:27;100709.66;;;34.57;42.97
72370;BME280;60343;-32.030;115.880;2024-01-15T01:49:07;100707.13;;;34.72;42.97
72370;BME280;60343;-32.030;115.880;2024-01-15T01:51:42;100693.91;;;34.69;44.19
72370;BME280;60343;-32.030;115.880;2024-01-15T01:54:17;100698.09;;;35.05;42.81
72370;BME280;60343;-32.030;115.880;2024-01-15T01:56:51;100697.75;;;35.27;43.69
72370;BME280;60343;-32.030;115.880;2024-01-15T01:59:26;100690.41;;;35.43;41.52
72370;BME280;60343;-32.030;115.880;2024-01-15T02:02:02;100698.34;;;35.53;42.16
72370;BME280;60343;-32.030;115.880;2024-01-15T02:04:43;100694.63;;;35.49;40.84
72370;BME280;60343;-32.030;115.880;2024-01-15T02:07:18;100694.84;;;35.56;42.01
72370;BME280;60343;-32.030;115.880;2024-01-15T02:09:53;100686.16;;;35.79;41.63
72370;BME280;60343;-32.030;115.880;2024-01-15T02:12:27;100680.44;;;36.20;40.88
72370;BME280;60343;-32.030;115.880;2024-01-15T02:15:01;100683.34;;;36.24;40.83
72370;BME280;60343;-32.030;115.880;2024-01-15T02:17:57;100673.41;;;36.02;40.26
72370;BME280;60343;-32.030;115.880;2024-01-15T02:20:37;100674.66;;;35.92;40.74
72370;BME280;60343;-32.030;115.880;2024-01-15T02:23:17;100665.03;;;35.90;42.20
72370;BME280;60343;-32.030;115.880;2024-01-15T02:25:51;100675.03;;;35.91;42.18
72370;BME280;60343;-32.030;115.880;2024-01-15T02:28:25;100675.00;;;35.79;41.17
72370;BME280;60343;-32.030;115.880;2024-01-15T02:31:01;100672.25;;;35.91;41.73
72370;BME280;60343;-32.030;115.880;2024-01-15T02:33:35;100663.78;;;35.99;40.82
72370;BME280;60343;-32.030;115.880;2024-01-15T02:36:10;100666.94;;;36.10;40.84
72370;BME280;60343;-32.030;115.880;2024-01-15T02:38:50;100659.00;;;36.12;41.25
72370;BME280;60343;-32.030;115.880;2024-01-15T02:41:24;100655.13;;;36.25;40.69
72370;BME280;60343;-32.030;115.880;2024-01-15T02:43:58;100655.13;;;36.25;40.35
72370;BME280;60343;-32.030;115.880;2024-01-15T02:46:32;100640.69;;;36.23;39.34
72370;BME280;60343;-32.030;115.880;2024-01-15T02:49:06;100643.34;;;36.32;40.85
72370;BME280;60343;-32.030;115.880;2024-01-15T02:51:41;100646.63;;;36.46;39.77
72370;BME280;60343;-32.030;115.880;2024-01-15T02:54:22;100651.13;;;36.75;40.19
72370;BME280;60343;-32.030;115.880;2024-01-15T02:56:56;100646.13;;;36.80;39.26
72370;BME280;60343;-32.030;115.880;2024-01-15T02:59:30;100631.88;;;36.97;41.18
72370;BME280;60343;-32.030;115.880;2024-01-15T03:02:04;100632.84;;;36.77;42.97
72370;BME280;60343;-32.030;115.880;2024-01-15T03:04:43;100633.69;;;36.53;42.34
72370;BME280;60343;-32.030;115.880;2024-01-15T03:07:17;100630.59;;;36.06;44.30
72370;BME280;60343;-32.030;115.880;2024-01-15T03:09:57;100628.69;;;35.74;44.83
72370;BME280;60343;-32.030;115.880;2024-01-15T03:12:32;100621.72;;;35.35;46.05
72370;BME280;60343;-32.030;115.880;2024-01-15T03:15:07;100628.38;;;35.22;46.19
72370;BME280;60343;-32.030;115.880;2024-01-15T03:17:42;100625.13;;;34.99;46.59
72370;BME280;60343;-32.030;115.880;2024-01-15T03:20:18;100624.44;;;35.02;46.64
72370;BME280;60343;-32.030;115.880;2024-01-15T03:22:52;100627.38;;;35.06;47.10
72370;BME280;60343;-32.030;115.880;2024-01-15T03:25:32;100622.94;;;34.84;47.29
72370;BME280;60343;-32.030;115.880;2024-01-15T03:28:06;100624.19;;;34.74;47.23
72370;BME280;60343;-32.030;115.880;2024-01-15T03:30:41;100623.97;;;34.79;48.03
72370;BME280;60343;-32.030;115.880;2024-01-15T03:33:15;100613.72;;;34.71;47.66
72370;BME280;60343;-32.030;115.880;2024-01-15T03:35:49;100621.78;;;34.64;48.04
72370;BME280;60343;-32.030;115.880;2024-01-15T03:38:24;100617.84;;;34.65;48.20
72370;BME280;60343;-32.030;115.880;2024-01-15T03:41:04;100619.78;;;34.44;48.21
72370;BME280;60343;-32.030;115.880;2024-01-15T03:43:38;100624.38;;;34.02;48.93
72370;BME280;60343;-32.030;115.880;2024-01-15T03:46:14;100622.22;;;33.70;49.93
72370;BME280;60343;-32.030;115.880;2024-01-15T03:48:49;100624.66;;;33.80;49.46
72370;BME280;60343;-32.030;115.880;2024-01-15T03:51:24;100627.94;;;33.65;49.53
72370;BME280;60343;-32.030;115.880;2024-01-15T03:53:58;100620.44;;;33.56;49.98
72370;BME280;60343;-32.030;115.880;2024-01-15T03:56:37;100625.47;;;33.72;50.71
72370;BME280;60343;-32.030;115.880;2024-01-15T03:59:12;100630.75;;;33.39;50.22
72370;BME280;60343;-32.030;115.880;2024-01-15T04:01:50;100626.69;;;33.45;49.79
72370;BME280;60343;-32.030;115.880;2024-01-15T04:04:24;100624.19;;;33.52;50.32
72370;BME280;60343;-32.030;115.880;2024-01-15T04:06:59;100617.84;;;33.43;50.47
72370;BME280;60343;-32.030;115.880;2024-01-15T04:09:33;100615.50;;;33.62;49.92
72370;BME280;60343;-32.030;115.880;2024-01-15T04:12:13;100622.59;;;33.34;50.42
72370;BME280;60343;-32.030;115.880;2024-01-15T04:14:47;100626.03;;;33.22;50.26
72370;BME280;60343;-32.030;115.880;2024-01-15T04:17:21;100629.47;;;32.93;51.20
72370;BME280;60343;-32.030;115.880;2024-01-15T04:19:55;100627.81;;;32.66;51.75
72370;BME280;60343;-32.030;115.880;2024-01-15T04:22:30;100628.97;;;32.74;52.02
72370;BME280;60343;-32.030;115.880;2024-01-15T04:25:04;100630.59;;;32.84;52.12
72370;BME280;60343;-32.030;115.880;2024-01-15T04:27:44;100630.56;;;32.75;52.40
72370;BME280;60343;-32.030;115.880;2024-01-15T04:30:19;100631.06;;;32.86;52.31
72370;BME280;60343;-32.030;115.880;2024-01-15T04:32:53;100627.84;;;33.09;51.12
72370;BME280;60343;-32.030;115.880;2024-01-15T04:35:27;100628.13;;;32.91;51.31
72370;BME280;60343;-32.030;115.880;2024-01-15T04:38:01;100622.69;;;32.60;52.01
72370;BME280;60343;-32.030;115.880;2024-01-15T04:40:36;100622.84;;;32.55;52.25
72370;BME280;60343;-32.030;115.880;2024-01-15T04:43:16;100622.06;;;32.63;52.27
72370;BME280;60343;-32.030;115.880;2024-01-15T04:45:50;100618.63;;;32.49;52.50
72370;BME280;60343;-32.030;115.880;2024-01-15T04:48:24;100615.19;;;32.52;52.75
72370;BME280;60343;-32.030;115.880;2024-01-15T04:50:58;100620.22;;;32.50;52.02
72370;BME280;60343;-32.030;115.880;2024-01-15T04:53:34;100614.09;;;32.70;52.62
72370;BME280;60343;-32.030;115.880;2024-01-15T04:56:08;100612.66;;;32.98;51.25
72370;BME280;60343;-32.030;115.880;2024-01-15T04:58:48;100608.25;;;32.97;50.54
72370;BME280;60343;-32.030;115.880;2024-01-15T05:01:22;100605.81;;;32.87;51.10
72370;BME280;60343;-32.030;115.880;2024-01-15T05:03:56;100601.72;;;32.85;50.79
72370;BME280;60343;-32.030;115.880;2024-01-15T05:06:31;100604.66;;;32.80;51.38
72370;BME280;60343;-32.030;115.880;2024-01-15T05:09:05;100602.16;;;32.52;51.46
72370;BME280;60343;-32.030;115.880;2024-01-15T05:11:40;100605.44;;;32.63;50.79
72370;BME280;60343;-32.030;115.880;2024-01-15T05:14:20;100599.22;;;32.49;51.70
72370;BME280;60343;-32.030;115.880;2024-01-15T05:16:54;100599.75;;;32.85;50.66
72370;BME280;60343;-32.030;115.880;2024-01-15T05:19:28;100600.91;;;32.84;51.49
72370;BME280;60343;-32.030;115.880;2024-01-15T05:22:03;100595.84;;;32.77;50.63
72370;BME280;60343;-32.030;115.880;2024-01-15T05:24:37;100599.28;;;32.92;50.50
72370;BME280;60343;-32.030;115.880;2024-01-15T05:27:12;100593.72;;;33.00;50.54
72370;BME280;60343;-32.030;115.880;2024-01-15T05:29:52;100596.97;;;33.37;49.78
72370;BME280;60343;-32.030;115.880;2024-01-15T05:32:27;100590.94;;;33.35;49.66
72370;BME280;60343;-32.030;115.880;2024-01-15T05:35:03;100595.03;;;33.29;49.27
72370;BME280;60343;-32.030;115.880;2024-01-15T05:37:38;100595.66;;;33.26;50.23
72370;BME280;60343;-32.030;115.880;2024-01-15T05:40:13;100602.19;;;33.38;49.21
72370;BME280;60343;-32.030;115.880;2024-01-15T05:42:47;100595.78;;;33.46;50.03
72370;BME280;60343;-32.030;115.880;2024-01-15T05:45:27;100596.59;;;33.47;49.26
72370;BME280;60343;-32.030;115.880;2024-01-15T05:48:01;100594.16;;;33.54;49.29
72370;BME280;60343;-32.030;115.880;2024-01-15T05:50:35;100591.78;;;33.82;48.47
72370;BME280;60343;-32.030;115.880;2024-01-15T05:53:11;100592.09;;;33.80;49.16
72370;BME280;60343;-32.030;115.880;2024-01-15T05:55:45;100593.25;;;34.17;48.16
72370;BME280;60343;-32.030;115.880;2024-01-15T05:58:19;100584.41;;;34.24;47.73
72370;BME280;60343;-32.030;115.880;2024-01-15T06:00:59;100576.22;;;34.27;47.87
72370;BME280;60343;-32.030;115.880;2024-01-15T06:03:33;100572.34;;;34.20;47.41
72370;BME280;60343;-32.030;115.880;2024-01-15T06:06:09;100572.22;;;34.08;48.14
72370;BME280;60343;-32.030;115.880;2024-01-15T06:08:44;100564.28;;;34.47;47.53
72370;BME280;60343;-32.030;115.880;2024-01-15T06:11:18;100573.53;;;34.60;47.78
72370;BME280;60343;-32.030;115.880;2024-01-15T06:13:54;100562.66;;;34.67;46.45
72370;BME280;60343;-32.030;115.880;2024-01-15T06:16:35;100563.91;;;34.78;46.56
72370;BME280;60343;-32.030;115.880;2024-01-15T06:19:09;100554.44;;;34.79;46.56
72370;BME280;60343;-32.030;115.880;2024-01-15T06:21:43;100558.28;;;34.87;45.56
72370;BME280;60343;-32.030;115.880;2024-01-15T06:24:17;100551.84;;;35.07;45.58
72370;BME280;60343;-32.030;115.880;2024-01-15T06:26:52;100536.53;;;34.68;45.46
72370;BME280;60343;-32.030;115.880;2024-01-15T06:29:26;100550.06;;;34.91;45.29
72370;BME280;60343;-32.030;115.880;2024-01-15T06:32:06;100540.25;;;34.72;45.31
72370;BME280;60343;-32.030;115.880;2024-01-15T06:34:40;100531.00;;;34.60;45.85
72370;BME280;60343;-32.030;115.880;2024-01-15T06:37:14;100531.22;;;34.75;45.23
72370;BME280;60343;-32.030;115.880;2024-01-15T06:39:49;100533.22;;;34.87;45.19
72370;BME280;60343;-32.030;115.880;2024-01-15T06:42:25;100528.44;;;35.08;45.34
72370;BME280;60343;-32.030;115.880;2024-01-15T06:44:59;100530.03;;;35.30;44.77
72370;BME280;60343;-32.030;115.880;2024-01-15T06:47:39;100527.69;;;35.20;44.52
72370;BME280;60343;-32.030;115.880;2024-01-15T06:50:15;100528.19;;;35.01;44.83
72370;BME280;60343;-32.030;115.880;2024-01-15T06:52:49;100527.41;;;35.13;45.08
72370;BME280;60343;-32.030;115.880;2024-01-15T06:55:23;100524.09;;;35.32;44.32
72370;BME280;60343;-32.030;115.880;2024-01-15T06:57:57;100522.50;;;35.43;45.20
72370;BME280;60343;-32.030;115.880;2024-01-15T07:00:33;100511.16;;;35.36;44.38
72370;BME280;60343;-32.030;115.880;2024-01-15T07:03:13;100515.59;;;35.61;43.54
72370;BME280;60343;-32.030;115.880;2024-01-15T07:05:48;100505.63;;;35.84;43.31
72370;BME280;60343;-32.030;115.880;2024-01-15T07:08:22;100505.03;;;35.79;43.59
72370;BME280;60343;-32.030;115.880;2024-01-15T07:10:57;100507.34;;;35.64;43.95
72370;BME280;60343;-32.030;115.880;2024-01-15T07:13:31;100501.53;;;35.57;44.66
72370;BME280;60343;-32.030;115.880;2024-01-15T07:16:05;100504.53;;;35.40;44.32
72370;BME280;60343;-32.030;115.880;2024-01-15T07:18:45;100500.22;;;34.98;45.05
72370;BME280;60343;-32.030;115.880;2024-01-15T07:21:20;100500.97;;;34.32;46.81
72370;BME280;60343;-32.030;115.880;2024-01-15T07:23:56;100503.81;;;33.94;48.32
72370;BME280;60343;-32.030;115.880;2024-01-15T07:26:31;100509.38;;;33.56;49.51
72370;BME280;60343;-32.030;115.880;2024-01-15T07:29:05;100508.00;;;33.33;49.39
72370;BME280;60343;-32.030;115.880;2024-01-15T07:31:39;100504.44;;;33.24;50.37
72370;BME280;60343;-32.030;115.880;2024-01-15T07:34:19;100511.00;;;33.19;50.89
72370;BME280;60343;-32.030;115.880;2024-01-15T07:36:53;100501.66;;;33.24;49.23
72370;BME280;60343;-32.030;115.880;2024-01-15T07:39:28;100503.47;;;33.03;50.04
72370;BME280;60343;-32.030;115.880;2024-01-15T07:42:03;100506.22;;;33.11;50.06
72370;BME280;60343;-32.030;115.880;2024-01-15T07:44:37;100504.41;;;33.15;51.35
72370;BME280;60343;-32.030;115.880;2024-01-15T07:47:12;100513.25;;;33.00;50.54
72370;BME280;60343;-32.030;115.880;2024-01-15T07:49:52;100503.19;;;32.87;51.14
72370;BME280;60343;-32.030;115.880;2024-01-15T07:52:26;100501.59;;;32.69;50.32
72370;BME280;60343;-32.030;115.880;2024-01-15T07:55:03;100508.25;;;32.33;51.41
72370;BME280;60343;-32.030;115.880;2024-01-15T07:57:38;100503.75;;;32.07;52.04
72370;BME280;60343;-32.030;115.880;2024-01-15T08:00:13;100496.22;;;31.81;53.27
72370;BME280;60343;-32.030;115.880;2024-01-15T08:02:49;100501.91;;;31.76;53.37
72370;BME280;60343;-32.030;115.880;2024-01-15T08:05:28;100492.44;;;31.69;53.54
72370;BME280;60343;-32.030;115.880;2024-01-15T08:08:03;100491.50;;;31.51;53.86
72370;BME280;60343;-32.030;115.880;2024-01-15T08:10:37;100487.09;;;31.41;53.90
72370;BME280;60343;-32.030;115.880;2024-01-15T08:13:11;100486.50;;;31.22;54.43
72370;BME280;60343;-32.030;115.880;2024-01-15T08:15:47;100494.31;;;31.20;54.83
72370;BME280;60343;-32.030;115.880;2024-01-15T08:18:21;100489.91;;;31.19;54.71
72370;BME280;60343;-32.030;115.880;2024-01-15T08:21:01;100488.81;;;31.29;54.46
72370;BME280;60343;-32.030;115.880;2024-01-15T08:23:37;100489.41;;;31.17;55.09
72370;BME280;60343;-32.030;115.880;2024-01-15T08:26:12;100493.44;;;31.11;56.14
72370;BME280;60343;-32.030;115.880;2024-01-15T08:28:48;100490.00;;;31.05;55.36
72370;BME280;60343;-32.030;115.880;2024-01-15T08:31:23;100487.22;;;31.05;55.75
72370;BME280;60343;-32.030;115.880;2024-01-15T08:33:58;100482.38;;;31.11;55.17
72370;BME280;60343;-32.030;115.880;2024-01-15T08:36:38;100480.28;;;30.94;55.25
72370;BME280;60343;-32.030;115.880;2024-01-15T08:39:12;100474.84;;;30.81;56.48
72370;BME280;60343;-32.030;115.880;2024-01-15T08:41:47;100474.47;;;30.74;55.82
72370;BME280;60343;-32.030;115.880;2024-01-15T08:44:21;100465.41;;;30.59;55.58
72370;BME280;60343;-32.030;115.880;2024-01-15T08:46:55;100465.53;;;30.54;56.32
72370;BME280;60343;-32.030;115.880;2024-01-15T08:49:30;100466.06;;;30.56;57.62
72370;BME280;60343;-32.030;115.880;2024-01-15T08:52:10;100459.06;;;30.59;56.99
72370;BME280;60343;-32.030;115.880;2024-01-15T08:54:44;100455.34;;;30.41;56.95
72370;BME280;60343;-32.030;115.880;2024-01-15T08:57:18;100456.31;;;30.23;57.57
72370;BME280;60343;-32.030;115.880;2024-01-15T08:59:53;100457.38;;;30.13;57.79
72370;BME280;60343;-32.030;115.880;2024-01-15T09:02:27;100460.47;;;30.12;57.91
72370;BME280;60343;-32.030;115.880;2024-01-15T09:05:01;100456.81;;;30.03;57.92
72370;BME280;60343;-32.030;115.880;2024-01-15T09:07:41;100459.16;;;29.96;57.94
72370;BME280;60343;-32.030;115.880;2024-01-15T09:10:16;100456.41;;;29.82;59.06
72370;BME280;60343;-32.030;115.880;2024-01-15T09:12:50;100455.06;;;29.79;59.08
72370;BME280;60343;-32.030;115.880;2024-01-15T09:15:24;100452.94;;;29.76;58.70
72370;BME280;60343;-32.030;115.880;2024-01-15T09:17:58;100454.25;;;29.65;60.45
72370;BME280;60343;-32.030;115.880;2024-01-15T09:20:34;100452.72;;;29.59;60.42
72370;BME280;60343;-32.030;115.880;2024-01-15T09:23:14;100441.69;;;29.59;60.27
72370;BME280;60343;-32.030;115.880;2024-01-15T09:25:50;100448.44;;;29.39;61.20
72370;BME280;60343;-32.030;115.880;2024-01-15T09:28:26;100445.66;;;29.26;60.43
72370;BME280;60343;-32.030;115.880;2024-01-15T09:31:00;100438.78;;;29.10;61.76
72370;BME280;60343;-32.030;115.880;2024-01-15T09:33:34;100452.13;;;29.02;62.26
72370;BME280;60343;-32.030;115.880;2024-01-15T09:36:09;100444.50;;;28.99;61.89
72370;BME280;60343;-32.030;115.880;2024-01-15T09:38:54;100441.72;;;28.99;61.81
72370;BME280;60343;-32.030;115.880;2024-01-15T09:41:42;100449.81;;;28.96;62.52
72370;BME280;60343;-32.030;115.880;2024-01-15T09:44:21;100452.66;;;28.91;61.82
72370;BME280;60343;-32.030;115.880;2024-01-15T09:47:00;100457.94;;;28.87;61.48
72370;BME280;60343;-32.030;115.880;2024-01-15T09:49:35;100460.06;;;28.77;62.52
72370;BME280;60343;-32.030;115.880;2024-01-15T09:52:11;100457.06;;;28.73;62.08
72370;BME280;60343;-32.030;115.880;2024-01-15T09:54:52;100466.44;;;28.72;62.41
72370;BME280;60343;-32.030;115.880;2024-01-15T09:57:27;100467.50;;;28.76;63.02
72370;BME280;60343;-32.030;115.880;2024-01-15T10:00:02;100469.22;;;28.72;63.24
72370;BME280;60343;-32.030;115.880;2024-01-15T10:02:38;100465.09;;;28.70;62.53
72370;BME280;60343;-32.030;115.880;2024-01-15T10:05:12;100456.84;;;28.70;61.89
72370;BME280;60343;-32.030;115.880;2024-01-15T10:07:47;100460.59;;;28.60;61.70
72370;BME280;60343;-32.030;115.880;2024-01-15T10:10:28;100457.81;;;28.60;62.39
72370;BME280;60343;-32.030;115.880;2024-01-15T10:13:03;100460.06;;;28.58;62.39
72370;BME280;60343;-32.030;115.880;2024-01-15T10:15:39;100454.28;;;28.41;63.06
72370;BME280;60343;-32.030;115.880;2024-01-15T10:18:14;100460.97;;;28.35;63.66
72370;BME280;60343;-32.030;115.880;2024-01-15T10:20:48;100467.88;;;28.32;64.46
72370;BME280;60343;-32.030;115.880;2024-01-15T10:23:23;100469.03;;;28.31;64.46
72370;BME280;60343;-32.030;115.880;2024-01-15T10:26:04;100465.06;;;28.19;64.69
72370;BME280;60343;-32.030;115.880;2024-01-15T10:28:40;100461.41;;;28.04;64.80
72370;BME280;60343;-32.030;115.880;2024-01-15T10:31:15;100464.72;;;27.83;65.81
72370;BME280;60343;-32.030;115.880;2024-01-15T10:33:49;100471.97;;;27.73;66.81
72370;BME280;60343;-32.030;115.880;2024-01-15T10:36:25;100474.03;;;27.63;66.62
72370;BME280;60343;-32.030;115.880;2024-01-15T10:39:00;100476.63;;;27.54;66.70
72370;BME280;60343;-32.030;115.880;2024-01-15T10:41:43;100475.81;;;27.54;67.31
72370;BME280;60343;-32.030;115.880;2024-01-15T10:44:18;100478.59;;;27.49;68.27
72370;BME280;60343;-32.030;115.880;2024-01-15T10:46:52;100480.97;;;27.31;69.18
72370;BME280;60343;-32.030;115.880;2024-01-15T10:49:28;100476.38;;;27.22;69.34
72370;BME280;60343;-32.030;115.880;2024-01-15T10:52:02;100487.97;;;27.19;69.49
72370;BME280;60343;-32.030;115.880;2024-01-15T10:54:38;100475.22;;;27.04;70.24
72370;BME280;60343;-32.030;115.880;2024-01-15T10:57:19;100482.19;;;26.92;70.27
72370;BME280;60343;-32.030;115.880;2024-01-15T10:59:55;100489.66;;;26.81;70.77
72370;BME280;60343;-32.030;115.880;2024-01-15T11:02:31;100489.78;;;26.71;71.53
72370;BME280;60343;-32.030;115.880;2024-01-15T11:05:07;100495.81;;;26.68;71.95
72370;BME280;60343;-32.030;115.880;2024-01-15T11:07:41;100493.16;;;26.58;72.27
72370;BME280;60343;-32.030;115.880;2024-01-15T11:10:39;100497.06;;;26.46;72.54
72370;BME280;60343;-32.030;115.880;2024-01-15T11:13:24;100501.47;;;26.47;72.71
72370;BME280;60343;-32.030;115.880;2024-01-15T11:16:15;100504.31;;;26.27;73.63
72370;BME280;60343;-32.030;115.880;2024-01-15T11:19:03;100509.84;;;26.17;74.00
72370;BME280;60343;-32.030;115.880;2024-01-15T11:21:43;100509.88;;;26.12;73.77
72370;BME280;60343;-32.030;115.880;2024-01-15T11:24:34;100510.69;;;26.13;73.44
72370;BME280;60343;-32.030;115.880;2024-01-15T11:27:10;100510.47;;;26.04;73.38
72370;BME280;60343;-32.030;115.880;2024-01-15T11:30:03;100512.94;;;26.00;73.32
72370;BME280;60343;-32.030;115.880;2024-01-15T11:32:38;100522.31;;;25.94;73.45
72370;BME280;60343;-32.030;115.880;2024-01-15T11:35:14;100517.41;;;25.81;74.16
72370;BME280;60343;-32.030;115.880;2024-01-15T11:38:00;100521.84;;;25.72;75.12
72370;BME280;60343;-32.030;115.880;2024-01-15T11:40:41;100526.84;;;25.60;75.69
72370;BME280;60343;-32.030;115.880;2024-01-15T11:43:17;100517.78;;;25.59;75.64
72370;BME280;60343;-32.030;115.880;2024-01-15T11:46:01;100518.88;;;25.43;76.54
72370;BME280;60343;-32.030;115.880;2024-01-15T11:48:43;100522.16;;;25.40;76.54
72370;BME280;60343;-32.030;115.880;2024-01-15T11:51:19;100515.59;;;25.31;77.14
72370;BME280;60343;-32.030;115.880;2024-01-15T11:53:56;100512.34;;;25.24;77.59
72370;BME280;60343;-32.030;115.880;2024-01-15T11:56:33;100517.00;;;25.13;77.67
72370;BME280;60343;-32.030;115.880;2024-01-15T11:59:09;100507.72;;;25.09;78.56
72370;BME280;60343;-32.030;115.880;2024-01-15T12:01:49;100514.00;;;25.05;78.69
72370;BME280;60343;-32.030;115.880;2024-01-15T12:04:23;100522.75;;;25.07;78.83
72370;BME280;60343;-32.030;115.880;2024-01-15T12:06:58;100518.38;;;25.11;78.87
72370;BME280;60343;-32.030;115.880;2024-01-15T12:09:32;100514.00;;;25.05;79.02
72370;BME280;60343;-32.030;115.880;2024-01-15T12:12:10;100521.41;;;24.89;80.07
72370;BME280;60343;-32.030;115.880;2024-01-15T12:14:46;100522.75;;;24.82;80.05
72370;BME280;60343;-32.030;115.880;2024-01-15T12:17:27;100510.69;;;24.72;80.80
72370;BME280;60343;-32.030;115.880;2024-01-15T12:20:02;100511.50;;;24.63;81.23
72370;BME280;60343;-32.030;115.880;2024-01-15T12:22:36;100518.63;;;24.69;81.58
72370;BME280;60343;-32.030;115.880;2024-01-15T12:25:13;100520.00;;;24.66;81.34
72370;BME280;60343;-32.030;115.880;2024-01-15T12:27:47;100519.72;;;24.73;81.33
72370;BME280;60343;-32.030;115.880;2024-01-15T12:30:22;100516.16;;;24.72;81.61
72370;BME280;60343;-32.030;115.880;2024-01-15T12:33:02;100516.44;;;24.66;81.91
72370;BME280;60343;-32.030;115.880;2024-01-15T12:35:37;100519.72;;;24.63;81.92
72370;BME280;60343;-32.030;115.880;2024-01-15T12:38:11;100519.44;;;24.59;82.37
72370;BME280;60343;-32.030;115.880;2024-01-15T12:40:46;100520.78;;;24.57;82.52
72370;BME280;60343;-32.030;115.880;2024-01-15T12:43:20;100516.16;;;24.57;82.55
72370;BME280;60343;-32.030;115.880;2024-01-15T12:45:54;100513.69;;;24.61;82.33
72370;BME280;60343;-32.030;115.880;2024-01-15T12:48:35;100512.84;;;24.60;82.69
72370;BME280;60343;-32.030;115.880;2024-01-15T12:51:09;100516.16;;;24.67;82.67
72370;BME280;60343;-32.030;115.880;2024-01-15T12:53:43;100515.06;;;24.58;82.50
72370;BME280;60343;-32.030;115.880;2024-01-15T12:56:19;100516.16;;;24.62;82.73
72370;BME280;60343;-32.030;115.880;2024-01-15T12:58:53;100521.06;;;24.65;82.51
72370;BME280;60343;-32.030;115.880;2024-01-15T13:01:27;100520.25;;;24.55;82.66
72370;BME280;60343;-32.030;115.880;2024-01-15T13:04:09;100527.06;;;24.42;83.25